createdAt,value
2022-12-03T00:02:03.217Z,11.20
2022-12-03T00:04:30.485Z,11.55
2022-12-03T00:06:57.796Z,10.52
2022-12-03T00:09:25.029Z,9.82
2022-12-03T00:11:52.382Z,9.70
2022-12-03T00:14:19.613Z,12.27
2022-12-03T00:16:47.568Z,11.15
2022-12-03T00:19:15.113Z,10.95
2022-12-03T00:21:42.409Z,11.10
2022-12-03T00:24:09.668Z,11.18
2022-12-03T00:26:36.991Z,11.00
2022-12-03T00:29:04.243Z,11.60
2022-12-03T00:31:31.593Z,10.88
2022-12-03T00:33:58.850Z,11.35
2022-12-03T00:36:26.125Z,11.68
2022-12-03T00:38:54.416Z,11.13
2022-12-03T00:41:21.748Z,11.18
2022-12-03T00:43:48.955Z,10.85
2022-12-03T00:46:21.103Z,11.20
2022-12-03T00:48:48.955Z,11.00
2022-12-03T00:51:16.145Z,10.97
2022-12-03T00:53:43.419Z,10.70
2022-12-03T00:56:10.883Z,11.23
2022-12-03T00:58:38.147Z,10.07
2022-12-03T01:01:05.459Z,11.07
2022-12-03T01:03:32.818Z,9.37
2022-12-03T01:06:00.249Z,10.05
2022-12-03T01:08:27.567Z,10.07
2022-12-03T01:10:54.817Z,9.13
2022-12-03T01:13:22.108Z,9.70
2022-12-03T01:15:49.404Z,10.23
2022-12-03T01:18:16.727Z,9.82
2022-12-03T01:20:44.002Z,9.40
2022-12-03T01:23:13.516Z,11.20
2022-12-03T01:25:40.761Z,10.15
2022-12-03T01:28:08.113Z,11.47
2022-12-03T01:30:55.422Z,9.45
2022-12-03T01:33:22.764Z,10.05
2022-12-03T01:35:50.091Z,9.05
2022-12-03T01:38:17.629Z,9.65
2022-12-03T01:40:45.201Z,8.57
2022-12-03T01:43:12.484Z,10.32
2022-12-03T01:45:39.699Z,10.50
2022-12-03T01:48:06.958Z,9.20
2022-12-03T01:50:34.218Z,9.43
2022-12-03T01:53:02.637Z,10.83
2022-12-03T01:55:29.933Z,10.48
2022-12-03T01:57:59.036Z,9.77
2022-12-03T02:00:29.702Z,11.07
2022-12-03T02:03:00.903Z,9.55
2022-12-03T02:05:29.940Z,9.43
2022-12-03T02:07:57.481Z,8.98
2022-12-03T02:10:33.971Z,10.00
2022-12-03T02:13:10.447Z,8.57
2022-12-03T02:15:38.782Z,6.90
2022-12-03T02:18:06.118Z,9.00
2022-12-03T02:20:33.672Z,10.60
2022-12-03T02:23:23.966Z,9.90
2022-12-03T02:25:51.303Z,9.82
2022-12-03T02:28:18.595Z,10.13
2022-12-03T02:30:45.883Z,10.67
2022-12-03T02:33:13.144Z,9.55
2022-12-03T02:35:40.534Z,11.18
2022-12-03T02:38:23.315Z,10.18
2022-12-03T02:40:52.678Z,10.18
2022-12-03T02:43:19.955Z,9.70
2022-12-03T02:45:48.789Z,9.02
2022-12-03T02:48:16.726Z,10.40
2022-12-03T02:50:48.365Z,10.43
2022-12-03T02:53:18.368Z,10.25
2022-12-03T02:55:45.687Z,10.37
2022-12-03T02:58:12.986Z,9.95
2022-12-03T03:00:40.707Z,11.18
2022-12-03T03:03:07.954Z,10.40
2022-12-03T03:05:36.488Z,9.55
2022-12-03T03:08:03.826Z,10.13
2022-12-03T03:10:31.285Z,10.45
2022-12-03T03:12:58.504Z,10.32
2022-12-03T03:15:25.807Z,9.98
2022-12-03T03:17:53.135Z,10.77
2022-12-03T03:20:20.540Z,10.80
2022-12-03T03:22:47.782Z,10.00
2022-12-03T03:25:17.136Z,10.68
2022-12-03T03:27:44.360Z,11.68
2022-12-03T03:30:12.057Z,10.88
2022-12-03T03:32:39.380Z,10.37
2022-12-03T03:35:08.889Z,9.90
2022-12-03T03:37:36.147Z,11.05
2022-12-03T03:40:03.629Z,10.90
2022-12-03T03:42:30.846Z,10.88
2022-12-03T03:44:58.093Z,11.07
2022-12-03T03:47:25.814Z,9.60
2022-12-03T03:49:53.229Z,11.07
2022-12-03T03:52:20.477Z,11.38
2022-12-03T03:54:47.790Z,11.05
2022-12-03T03:57:15.042Z,12.37
2022-12-03T03:59:42.381Z,10.95
2022-12-03T04:02:23.036Z,11.77
2022-12-03T04:04:50.678Z,10.77
2022-12-03T04:07:18.143Z,11.40
2022-12-03T04:09:45.498Z,10.87
2022-12-03T04:12:31.259Z,10.55
2022-12-03T04:14:58.516Z,10.13
2022-12-03T04:17:25.963Z,11.35
2022-12-03T04:19:53.330Z,10.50
2022-12-03T04:22:39.337Z,11.17
2022-12-03T04:25:30.844Z,10.27
2022-12-03T04:28:16.807Z,10.30
2022-12-03T04:30:44.219Z,10.20
2022-12-03T04:33:30.079Z,10.77
2022-12-03T04:35:57.475Z,10.27
2022-12-03T04:38:24.783Z,10.15
2022-12-03T04:41:00.935Z,11.65
2022-12-03T04:43:28.849Z,10.40
2022-12-03T04:45:56.072Z,12.88
2022-12-03T04:48:23.675Z,11.80
2022-12-03T04:50:50.881Z,11.77
2022-12-03T04:53:18.265Z,12.10
2022-12-03T04:55:45.509Z,13.38
2022-12-03T04:58:12.763Z,12.13
2022-12-03T05:00:40.068Z,11.60
2022-12-03T05:03:07.435Z,12.63
2022-12-03T05:05:34.672Z,12.48
2022-12-03T05:08:02.067Z,13.15
2022-12-03T05:10:29.348Z,12.07
2022-12-03T05:12:56.750Z,11.17
2022-12-03T05:15:23.942Z,10.90
2022-12-03T05:17:51.240Z,11.10
2022-12-03T05:20:36.875Z,11.85
2022-12-03T05:23:04.220Z,12.18
2022-12-03T05:25:31.472Z,12.80
2022-12-03T05:27:58.738Z,12.98
2022-12-03T05:30:26.030Z,12.82
2022-12-03T05:32:53.385Z,13.73
2022-12-03T05:35:20.604Z,13.20
2022-12-03T05:37:47.951Z,11.90
2022-12-03T05:40:15.428Z,14.20
2022-12-03T05:42:54.865Z,12.95
2022-12-03T05:45:25.718Z,13.80
2022-12-03T05:47:53.530Z,13.57
2022-12-03T05:50:21.580Z,12.47
2022-12-03T05:52:48.908Z,11.80
2022-12-03T05:55:16.370Z,12.90
2022-12-03T05:57:43.786Z,12.65
2022-12-03T06:00:30.765Z,12.70
2022-12-03T06:02:58.546Z,13.77
2022-12-03T06:05:26.028Z,12.45
2022-12-03T06:07:53.391Z,12.52
2022-12-03T06:10:24.700Z,11.73
2022-12-03T06:12:52.217Z,11.20
2022-12-03T06:15:19.575Z,12.47
2022-12-03T06:17:47.022Z,12.48
2022-12-03T06:20:15.736Z,12.40
2022-12-03T06:22:43.053Z,11.52
2022-12-03T06:25:10.436Z,11.52
2022-12-03T06:27:37.834Z,12.00
2022-12-03T06:30:06.116Z,10.70
2022-12-03T06:32:33.450Z,10.68
2022-12-03T06:35:00.664Z,11.93
2022-12-03T06:37:27.977Z,11.73
2022-12-03T06:39:55.245Z,12.23
2022-12-03T06:42:22.675Z,10.40
2022-12-03T06:44:49.983Z,11.52
2022-12-03T06:47:17.355Z,11.13
2022-12-03T06:49:44.618Z,11.18
2022-12-03T06:52:11.976Z,11.00
2022-12-03T06:54:39.250Z,11.65
2022-12-03T06:57:06.567Z,10.52
2022-12-03T06:59:36.008Z,10.75
2022-12-03T07:02:04.303Z,9.73
2022-12-03T07:04:31.604Z,10.07
2022-12-03T07:06:58.978Z,11.23
2022-12-03T07:09:26.225Z,10.98
2022-12-03T07:11:53.512Z,10.43
2022-12-03T07:14:20.931Z,11.82
2022-12-03T07:16:48.336Z,13.17
2022-12-03T07:19:15.701Z,11.13
2022-12-03T07:21:43.046Z,10.55
2022-12-03T07:24:10.352Z,10.20
2022-12-03T07:26:37.678Z,10.38
2022-12-03T07:29:04.889Z,10.83
2022-12-03T07:31:32.440Z,11.13
2022-12-03T07:34:01.263Z,11.32
2022-12-03T07:36:28.584Z,13.25
2022-12-03T07:38:55.910Z,10.13
2022-12-03T07:41:23.190Z,11.87
2022-12-03T07:43:50.466Z,12.73
2022-12-03T07:46:17.955Z,14.70
2022-12-03T07:48:45.247Z,12.65
2022-12-03T07:51:15.143Z,12.90
2022-12-03T07:53:43.117Z,13.73
2022-12-03T07:56:10.414Z,13.13
2022-12-03T07:58:37.696Z,10.95
2022-12-03T08:01:05.197Z,11.32
2022-12-03T08:03:32.611Z,12.20
2022-12-03T08:05:59.829Z,13.20
2022-12-03T08:08:27.131Z,11.77
2022-12-03T08:10:54.340Z,12.05
2022-12-03T08:13:21.635Z,11.55
2022-12-03T08:15:48.984Z,11.25
2022-12-03T08:18:18.097Z,12.10
2022-12-03T08:20:46.411Z,13.50
2022-12-03T08:23:21.488Z,12.45
2022-12-03T08:25:49.761Z,13.00
2022-12-03T08:28:24.323Z,13.05
2022-12-03T08:31:02.633Z,12.40
2022-12-03T08:33:35.333Z,14.23
2022-12-03T08:36:16.160Z,14.15
2022-12-03T08:38:52.199Z,14.30
2022-12-03T08:41:38.622Z,13.85
2022-12-03T08:44:32.723Z,11.33
2022-12-03T08:47:09.129Z,12.63
2022-12-03T08:49:36.958Z,14.40
2022-12-03T08:52:11.802Z,15.25
2022-12-03T08:54:39.170Z,14.95
2022-12-03T08:57:21.938Z,14.60
2022-12-03T08:59:49.461Z,11.98
2022-12-03T09:02:20.807Z,16.35
2022-12-03T09:04:48.318Z,18.00
2022-12-03T09:07:15.543Z,19.05
2022-12-03T09:09:42.870Z,17.50
2022-12-03T09:12:10.147Z,17.67
2022-12-03T09:14:37.482Z,17.90
2022-12-03T09:17:04.895Z,18.80
2022-12-03T09:19:32.269Z,16.80
2022-12-03T09:21:59.563Z,17.47
2022-12-03T09:24:26.957Z,16.35
2022-12-03T09:26:54.148Z,17.55
2022-12-03T09:29:21.452Z,16.95
2022-12-03T09:31:48.772Z,17.48
2022-12-03T09:34:16.251Z,16.53
2022-12-03T09:36:43.540Z,17.20
2022-12-03T09:39:10.861Z,17.25
2022-12-03T09:41:38.107Z,16.73
2022-12-03T09:44:05.950Z,18.38
2022-12-03T09:46:35.221Z,17.43
2022-12-03T09:49:03.136Z,16.70
2022-12-03T09:51:34.663Z,18.23
2022-12-03T09:54:03.385Z,16.98
2022-12-03T09:56:30.643Z,17.15
2022-12-03T09:58:57.999Z,16.20
2022-12-03T10:01:29.890Z,15.60
2022-12-03T10:03:58.719Z,16.33
2022-12-03T10:06:25.975Z,16.80
2022-12-03T10:08:54.581Z,16.65
2022-12-03T10:11:24.166Z,17.60
2022-12-03T10:13:53.167Z,17.33
2022-12-03T10:16:21.092Z,18.95
2022-12-03T10:18:55.800Z,14.52
2022-12-03T10:21:27.396Z,15.98
2022-12-03T10:24:29.116Z,16.20
2022-12-03T10:26:58.034Z,15.32
2022-12-03T10:29:31.558Z,14.65
2022-12-03T10:32:05.310Z,15.10
2022-12-03T10:34:33.426Z,15.15
2022-12-03T10:37:12.896Z,16.80
2022-12-03T10:39:55.752Z,16.63
2022-12-03T10:42:28.148Z,18.10
2022-12-03T10:45:08.739Z,15.35
2022-12-03T10:47:36.306Z,16.25
2022-12-03T10:50:05.752Z,19.90
2022-12-03T10:52:33.028Z,15.43
2022-12-03T10:55:00.383Z,16.42
2022-12-03T10:57:27.896Z,14.13
2022-12-03T10:59:55.186Z,14.82
2022-12-03T11:02:23.746Z,17.57
2022-12-03T11:04:51.542Z,17.73
2022-12-03T11:07:20.420Z,17.65
2022-12-03T11:09:49.307Z,15.52
2022-12-03T11:12:27.337Z,17.90
2022-12-03T11:14:55.357Z,15.87
2022-12-03T11:17:48.926Z,15.30
2022-12-03T11:20:25.346Z,15.25
2022-12-03T11:22:56.057Z,15.73
2022-12-03T11:25:26.789Z,16.20
2022-12-03T11:28:12.484Z,17.80
2022-12-03T11:30:48.906Z,19.25
2022-12-03T11:33:25.027Z,21.33
2022-12-03T11:36:04.625Z,20.88
2022-12-03T11:38:38.257Z,19.38
2022-12-03T11:41:20.725Z,18.90
2022-12-03T11:43:56.875Z,18.75
2022-12-03T11:46:39.739Z,16.67
2022-12-03T11:49:29.099Z,17.35
2022-12-03T11:51:57.983Z,18.60
2022-12-03T11:54:25.212Z,22.67
2022-12-03T11:56:52.669Z,22.60
2022-12-03T11:59:20.005Z,18.25
2022-12-03T12:01:47.538Z,17.45
2022-12-03T12:04:35.021Z,20.92
2022-12-03T12:07:02.418Z,22.43
2022-12-03T12:09:49.251Z,20.25
2022-12-03T12:12:53.238Z,19.83
2022-12-03T12:15:35.468Z,21.63
2022-12-03T12:18:37.082Z,22.52
2022-12-03T12:21:38.541Z,18.27
2022-12-03T12:24:27.771Z,18.63
2022-12-03T12:26:55.961Z,18.83
2022-12-03T12:29:23.206Z,18.83
2022-12-03T12:31:53.937Z,21.05
2022-12-03T12:34:21.661Z,21.27
2022-12-03T12:36:48.859Z,20.98
2022-12-03T12:39:16.630Z,19.92
2022-12-03T12:41:43.851Z,21.65
2022-12-03T12:44:11.525Z,20.65
2022-12-03T12:46:47.844Z,21.17
2022-12-03T12:49:15.642Z,22.92
2022-12-03T12:51:44.365Z,22.92
2022-12-03T12:54:12.422Z,22.00
2022-12-03T12:56:42.574Z,21.40
2022-12-03T12:59:20.590Z,20.20
2022-12-03T13:01:49.255Z,22.98
2022-12-03T13:04:22.315Z,19.90
2022-12-03T13:06:51.352Z,18.02
2022-12-03T13:09:20.585Z,22.08
2022-12-03T13:11:52.461Z,21.10
2022-12-03T13:14:19.799Z,19.70
2022-12-03T13:16:51.333Z,23.70
2022-12-03T13:19:25.287Z,23.95
2022-12-03T13:21:53.706Z,26.83
2022-12-03T13:24:29.471Z,23.77
2022-12-03T13:26:56.993Z,23.63
2022-12-03T13:29:25.047Z,27.13
2022-12-03T13:31:53.162Z,30.90
2022-12-03T13:34:25.048Z,26.75
2022-12-03T13:39:42.486Z,21.13
2022-12-03T13:42:41.044Z,23.35
2022-12-03T13:45:14.212Z,19.67
2022-12-03T13:47:45.355Z,21.85
2022-12-03T13:50:33.853Z,20.17
2022-12-03T13:53:20.425Z,19.83
2022-12-03T13:55:49.629Z,20.35
2022-12-03T13:58:16.849Z,18.42
2022-12-03T14:00:44.403Z,21.58
2022-12-03T14:03:11.889Z,22.67
2022-12-03T14:05:39.215Z,23.33
2022-12-03T14:08:06.660Z,24.48
2022-12-03T14:10:34.116Z,23.30
2022-12-03T14:13:01.497Z,21.50
2022-12-03T14:15:28.802Z,19.70
2022-12-03T14:17:56.067Z,21.10
2022-12-03T14:20:23.445Z,21.42
2022-12-03T14:22:53.984Z,20.85
2022-12-03T14:25:24.997Z,20.73
2022-12-03T14:27:52.219Z,23.20
2022-12-03T14:30:19.516Z,20.08
2022-12-03T14:32:47.504Z,20.85
2022-12-03T14:35:14.924Z,20.65
2022-12-03T14:37:42.182Z,37.47
2022-12-03T14:40:09.682Z,30.80
2022-12-03T14:42:37.036Z,45.63
2022-12-03T14:45:04.689Z,32.75
2022-12-03T14:47:32.162Z,30.52
2022-12-03T14:50:00.558Z,24.92
2022-12-03T14:52:27.786Z,26.93
2022-12-03T14:54:55.194Z,21.55
2022-12-03T14:57:22.464Z,22.90
2022-12-03T14:59:49.825Z,23.38
2022-12-03T15:02:17.179Z,23.80
2022-12-03T15:04:44.492Z,20.63
2022-12-03T15:07:11.738Z,24.55
2022-12-03T15:09:39.068Z,24.50
2022-12-03T15:12:06.771Z,23.75
2022-12-03T15:14:34.124Z,24.63
2022-12-03T15:17:01.469Z,22.67
2022-12-03T15:19:28.899Z,24.13
2022-12-03T15:21:56.116Z,23.05
2022-12-03T15:24:23.410Z,27.27
2022-12-03T15:26:52.397Z,25.23
2022-12-03T15:29:20.383Z,25.37
2022-12-03T15:31:47.691Z,24.73
2022-12-03T15:34:20.343Z,28.08
2022-12-03T15:36:49.654Z,29.52
2022-12-03T15:39:16.884Z,25.73
2022-12-03T15:41:44.228Z,24.13
2022-12-03T15:44:11.449Z,26.95
2022-12-03T15:46:38.775Z,27.02
2022-12-03T15:49:06.072Z,28.10
2022-12-03T15:51:33.510Z,27.75
2022-12-03T15:54:00.819Z,30.57
2022-12-03T15:56:28.152Z,28.35
2022-12-03T15:58:55.382Z,28.63
2022-12-03T16:01:22.722Z,26.75
2022-12-03T16:03:50.023Z,27.58
2022-12-03T16:06:18.304Z,25.83
2022-12-03T16:08:46.081Z,26.17
2022-12-03T16:11:13.333Z,30.02
2022-12-03T16:13:40.587Z,28.83
2022-12-03T16:16:08.037Z,26.85
2022-12-03T16:18:35.375Z,25.13
2022-12-03T16:21:02.693Z,26.58
2022-12-03T16:23:29.912Z,26.45
2022-12-03T16:25:57.209Z,23.25
2022-12-03T16:28:24.474Z,26.40
2022-12-03T16:31:07.094Z,26.50
2022-12-03T16:33:34.552Z,27.00
2022-12-03T16:36:02.823Z,27.77
2022-12-03T16:38:31.133Z,27.55
2022-12-03T16:40:58.386Z,26.23
2022-12-03T16:43:25.958Z,26.23
2022-12-03T16:46:02.982Z,26.77
2022-12-03T16:48:30.423Z,25.17
2022-12-03T16:50:57.938Z,25.83
2022-12-03T16:53:25.307Z,25.20
2022-12-03T16:55:52.610Z,27.43
2022-12-03T16:58:21.528Z,27.23
2022-12-03T17:00:49.290Z,28.05
2022-12-03T17:03:17.965Z,28.80
2022-12-03T17:05:45.616Z,29.80
2022-12-03T17:08:13.625Z,29.50
2022-12-03T17:10:41.050Z,29.95
2022-12-03T17:13:10.119Z,32.60
2022-12-03T17:15:38.432Z,31.27
2022-12-03T17:18:06.388Z,30.10
2022-12-03T17:20:33.697Z,30.60
2022-12-03T17:23:01.249Z,32.50
2022-12-03T17:25:28.490Z,33.25
2022-12-03T17:27:55.845Z,30.98
2022-12-03T17:30:23.138Z,34.03
2022-12-03T17:32:50.603Z,30.93
2022-12-03T17:35:18.028Z,30.33
2022-12-03T17:37:45.618Z,27.48
2022-12-03T17:40:13.659Z,27.48
2022-12-03T17:42:40.955Z,26.77
2022-12-03T17:45:08.685Z,28.33
2022-12-03T17:47:35.950Z,28.48
2022-12-03T17:50:03.209Z,25.60
2022-12-03T17:52:30.543Z,28.52
2022-12-03T17:55:19.826Z,24.58
2022-12-03T17:57:45.071Z,25.87
2022-12-03T18:00:12.821Z,26.13
2022-12-03T18:02:40.961Z,28.92
2022-12-03T18:05:08.570Z,28.90
2022-12-03T18:07:35.938Z,31.73
2022-12-03T18:10:03.294Z,25.17
2022-12-03T18:12:30.660Z,26.60
2022-12-03T18:14:57.946Z,24.17
2022-12-03T18:17:25.300Z,24.30
2022-12-03T18:19:52.853Z,23.85
2022-12-03T18:22:20.610Z,23.87
2022-12-03T18:24:51.502Z,22.58
2022-12-03T18:27:22.686Z,23.85
2022-12-03T18:29:50.053Z,21.05
2022-12-03T18:32:28.269Z,23.35
2022-12-03T18:34:56.793Z,21.50
2022-12-03T18:37:26.641Z,22.17
2022-12-03T18:39:54.218Z,23.35
2022-12-03T18:42:22.996Z,23.73
2022-12-03T18:44:51.177Z,23.17
2022-12-03T18:47:20.192Z,23.67
2022-12-03T18:49:47.737Z,24.33
2022-12-03T18:52:15.899Z,26.40
2022-12-03T18:54:43.444Z,24.13
2022-12-03T18:57:10.849Z,23.55
2022-12-03T18:59:38.271Z,27.10
2022-12-03T19:02:05.852Z,25.70
2022-12-03T19:04:33.183Z,26.02
2022-12-03T19:07:00.635Z,26.35
2022-12-03T19:09:28.069Z,23.73
2022-12-03T19:11:55.352Z,24.03
2022-12-03T19:14:22.663Z,21.23
2022-12-03T19:16:50.270Z,26.27
2022-12-03T19:19:19.548Z,26.95
2022-12-03T19:21:46.785Z,25.08
2022-12-03T19:24:24.285Z,27.60
2022-12-03T19:26:55.414Z,32.30
2022-12-03T19:29:23.201Z,30.05
2022-12-03T19:31:51.306Z,28.73
2022-12-03T19:34:18.796Z,26.67
2022-12-03T19:36:46.267Z,22.67
2022-12-03T19:39:13.531Z,24.65
2022-12-03T19:41:43.259Z,27.83
2022-12-03T19:44:17.509Z,25.58
2022-12-03T19:46:44.891Z,26.65
2022-12-03T19:49:12.289Z,24.93
2022-12-03T19:51:39.646Z,25.83
2022-12-03T19:54:07.792Z,22.92
2022-12-03T19:56:35.170Z,25.92
2022-12-03T19:59:02.570Z,29.75
2022-12-03T20:01:31.706Z,24.53
2022-12-03T20:03:59.964Z,24.95
2022-12-03T20:06:29.651Z,25.85
2022-12-03T20:09:11.536Z,25.17
2022-12-03T20:11:39.526Z,27.30
2022-12-03T20:14:08.790Z,28.10
2022-12-03T20:16:36.220Z,29.77
2022-12-03T20:19:05.531Z,32.75
2022-12-03T20:21:33.793Z,28.90
2022-12-03T20:24:01.101Z,26.48
2022-12-03T20:26:28.451Z,28.57
2022-12-03T20:28:55.893Z,27.70
2022-12-03T20:31:24.877Z,26.50
2022-12-03T20:33:54.683Z,26.63
2022-12-03T20:36:22.956Z,26.50
2022-12-03T20:38:57.175Z,23.07
2022-12-03T20:41:24.543Z,25.70
2022-12-03T20:43:51.784Z,25.08
2022-12-03T20:46:21.311Z,27.35
2022-12-03T20:48:48.643Z,27.00
2022-12-03T20:51:18.074Z,27.10
2022-12-03T20:53:45.464Z,28.63
2022-12-03T20:56:20.606Z,31.73
2022-12-03T20:58:48.930Z,33.40
2022-12-03T21:01:21.003Z,28.65
2022-12-03T21:03:48.509Z,27.00
2022-12-03T21:06:16.067Z,25.98
2022-12-03T21:08:43.484Z,26.38
2022-12-03T21:11:12.224Z,27.10
2022-12-03T21:13:43.923Z,27.02
2022-12-03T21:16:26.148Z,26.57
2022-12-03T21:19:07.235Z,25.13
2022-12-03T21:21:35.538Z,28.48
2022-12-03T21:24:02.829Z,27.67
2022-12-03T21:26:30.087Z,29.67
2022-12-03T21:28:57.363Z,28.17
2022-12-03T21:31:26.006Z,28.13
2022-12-03T21:33:54.293Z,27.92
2022-12-03T21:36:21.732Z,26.17
2022-12-03T21:38:49.052Z,26.75
2022-12-03T21:41:16.316Z,26.43
2022-12-03T21:43:43.860Z,26.63
2022-12-03T21:47:08.156Z,27.65
2022-12-03T21:49:00.263Z,27.17
2022-12-03T21:51:27.471Z,27.27
2022-12-03T21:53:54.853Z,28.23
2022-12-03T21:56:22.205Z,28.42
2022-12-03T21:58:49.646Z,27.65
2022-12-03T22:01:23.791Z,27.75
2022-12-03T22:03:51.342Z,27.27
2022-12-03T22:06:18.727Z,25.13
2022-12-03T22:08:46.191Z,27.92
2022-12-03T22:11:15.613Z,28.55
2022-12-03T22:13:43.062Z,26.77
2022-12-03T22:16:11.976Z,24.60
2022-12-03T22:18:39.400Z,25.53
2022-12-03T22:21:11.951Z,25.00
2022-12-03T22:23:39.414Z,25.50
2022-12-03T22:26:08.444Z,25.83
2022-12-03T22:28:35.729Z,26.23
2022-12-03T22:31:07.110Z,24.80
2022-12-03T22:33:35.002Z,24.50
2022-12-03T22:36:04.073Z,27.50
2022-12-03T22:38:31.490Z,27.05
2022-12-03T22:40:58.886Z,27.85
2022-12-03T22:43:26.184Z,28.20
2022-12-03T22:45:54.880Z,24.88
2022-12-03T22:48:22.979Z,26.63
2022-12-03T22:50:50.986Z,28.48
2022-12-03T22:53:18.504Z,26.42
2022-12-03T22:55:58.009Z,26.97
2022-12-03T22:58:25.892Z,24.52
2022-12-03T23:00:53.117Z,26.80
2022-12-03T23:03:20.473Z,28.40
2022-12-03T23:05:47.752Z,26.17
2022-12-03T23:08:17.475Z,26.40
2022-12-03T23:10:46.576Z,26.13
2022-12-03T23:13:13.864Z,26.88
2022-12-03T23:15:51.357Z,23.45
2022-12-03T23:18:19.309Z,25.17
2022-12-03T23:20:51.365Z,25.07
2022-12-03T23:23:19.581Z,26.95
2022-12-03T23:26:16.453Z,26.15
2022-12-03T23:28:44.934Z,25.17
2022-12-03T23:31:27.392Z,27.10
2022-12-03T23:33:55.076Z,24.23
2022-12-03T23:36:22.390Z,25.83
2022-12-03T23:38:49.863Z,22.55
2022-12-03T23:41:19.141Z,24.83
2022-12-03T23:43:46.660Z,23.73
2022-12-03T23:46:18.670Z,26.27
2022-12-03T23:48:46.194Z,23.45
2022-12-03T23:51:14.985Z,22.58
2022-12-03T23:53:42.411Z,24.05
2022-12-03T23:56:11.492Z,24.92
2022-12-03T23:58:38.858Z,23.47
